Time;durP1;ratioP1;P1;durP2;ratioP2;P2;SDS_P1;SDS_P2;PMS_P1;PMS_P2;Temp;Humidity;BMP_temperature;BMP_pressure;BME280_temperature;BME280_humidity;BME280_pressure;Samples;Min_cycle;Max_cycle;Signal;HPM_P1;HPM_P2
2022/04/12 00:00:09;;;;;;;;;;;;;;;3.16;100.00;95683.00;1039083;28;19983;-74
2022/04/12 00:00:40;;;;;;;;;;;;;;;3.16;100.00;95670.84;1034863;28;20461;-74
2022/04/12 00:01:11;;;;;;;;;;;;;;;3.17;100.00;95679.41;1030870;28;19909;-74
2022/04/12 00:01:41;;;;;;;;;;;;;;;3.18;100.00;95680.97;1030618;28;20510;-74
2022/04/12 00:02:12;;;;;;;;;;;;;;;3.15;100.00;95676.22;1027137;28;19918;-74
2022/04/12 00:02:42;;;;;;;;;;;;;;;3.14;100.00;95674.66;1034886;28;19914;-75
2022/04/12 00:03:12;;;;;;;;;;;;;;;3.13;100.00;95679.06;1030738;28;19918;-74
2022/04/12 00:03:45;;;;;;;;;;;;;;;3.14;100.00;95674.66;1034908;28;19964;-73
2022/04/12 00:04:16;;;;;;;;;;;;;;;3.13;100.00;95673.06;1038527;28;19917;-72
2022/04/12 00:04:47;;;;;;;;;;;;;;;3.12;100.00;95674.06;1034928;28;20387;-73
2022/04/12 00:05:18;;;;;;;;;;;;;;;3.11;100.00;95675.09;1035253;28;19925;-73
2022/04/12 00:05:48;;;;;;;;;;;;;;;3.08;100.00;95671.13;1039084;28;19913;-73
2022/04/12 00:06:18;;;;;;;;;;;;;;;3.07;100.00;95675.50;1034912;28;19921;-73
2022/04/12 00:06:48;;;;;;;;;;;;;;;3.08;100.00;95671.13;1034613;28;19917;-73
2022/04/12 00:07:19;;;;;;;;;;;;;;;3.05;100.00;95674.97;1034700;28;19917;-73
2022/04/12 00:07:49;;;;;;;;;;;;;;;3.06;100.00;95679.13;1035193;28;20192;-73
2022/04/12 00:08:19;;;;;;;;;;;;;;;3.05;100.00;95674.13;1030765;28;20017;-73
2022/04/12 00:08:50;;;;;;;;;;;;;;;3.03;100.00;95679.56;1033138;28;20688;-73
2022/04/12 00:09:20;;;;;;;;;;;;;;;3.03;100.00;95671.78;1027089;28;19918;-73
2022/04/12 00:09:50;;;;;;;;;;;;;;;3.02;100.00;95672.78;1023084;29;19918;-73
2022/04/12 00:10:23;;;;;;;;;;;;;;;3.01;100.00;95667.81;1022935;28;19954;-75
2022/04/12 00:10:54;;;;;;;;;;;;;;;3.03;100.00;95673.59;1019864;28;19923;-75
2022/04/12 00:11:25;;;;;;;;;;;;;;;3.03;100.00;95669.19;1026944;28;19923;-73
2022/04/12 00:11:58;;;;;;;;;;;;;;;3.02;100.00;95667.59;1025250;28;19985;-73
2022/04/12 00:12:29;;;;;;;;;;;;;;;3.02;100.00;95670.19;1031419;28;20572;-72
2022/04/12 00:12:59;;;;;;;;;;;;;;;3.01;100.00;95671.19;1030776;28;19941;-71
2022/04/12 00:13:29;;;;;;;;;;;;;;;3.02;100.00;95679.78;1031320;28;19941;-73
2022/04/12 00:14:00;;;;;;;;;;;;;;;3.02;100.00;95661.63;1030675;28;20311;-73
2022/04/12 00:14:30;;;;;;;;;;;;;;;3.03;100.00;95669.19;1030816;28;19914;-74
2022/04/12 00:15:01;;;;;;;;;;;;;;;3.04;100.00;95669.97;1026696;28;19934;-73
2022/04/12 00:15:32;;;;;;;;;;;;;;;3.02;100.00;95667.59;1025751;28;19929;-72
2022/04/12 00:16:02;;;;;;;;;;;;;;;2.99;100.00;95673.22;1026624;28;19933;-76
2022/04/12 00:16:32;;;;;;;;;;;;;;;3.01;100.00;95671.19;1022925;28;19911;-74
2022/04/12 00:19:02;;;;;;;;;;;;;;;3.01;100.00;95665.22;1035872;28;20684;-73
2022/04/12 00:19:32;;;;;;;;;;;;;;;3.01;100.00;95668.59;1034891;28;19949;-74
2022/04/12 00:20:03;;;;;;;;;;;;;;;3.01;100.00;95666.00;1033846;28;19920;-73
2022/04/12 00:20:33;;;;;;;;;;;;;;;3.02;100.00;95669.41;1029996;28;19924;-73
2022/04/12 00:21:07;;;;;;;;;;;;;;;3.03;100.00;95665.81;1031212;28;19910;-74
2022/04/12 00:21:38;;;;;;;;;;;;;;;3.01;100.00;95665.22;1034843;28;19918;-72
2022/04/12 00:22:08;;;;;;;;;;;;;;;3.00;100.00;95661.84;1031261;28;19917;-75
2022/04/12 00:22:40;;;;;;;;;;;;;;;3.01;100.00;95665.22;1037687;28;19913;-72
2022/04/12 00:23:12;;;;;;;;;;;;;;;3.02;100.00;95664.22;1034874;28;19917;-73
2022/04/12 00:23:42;;;;;;;;;;;;;;;3.01;100.00;95663.41;1027225;28;19918;-72
2022/04/12 00:24:15;;;;;;;;;;;;;;;3.01;100.00;95660.81;1033376;28;20374;-74
2022/04/12 00:24:45;;;;;;;;;;;;;;;3.00;100.00;95664.44;1034666;28;19924;-72
2022/04/12 00:25:18;;;;;;;;;;;;;;;2.99;100.00;95657.69;1035170;28;19956;-73
2022/04/12 00:25:49;;;;;;;;;;;;;;;2.99;100.00;95657.69;1034540;28;19914;-73
2022/04/12 00:26:19;;;;;;;;;;;;;;;2.98;100.00;95653.47;1034827;28;19925;-74
2022/04/12 00:26:49;;;;;;;;;;;;;;;3.00;100.00;95653.28;1029445;28;19918;-73
2022/04/12 00:27:19;;;;;;;;;;;;;;;2.96;100.00;95650.34;1029637;28;19918;-73
2022/04/12 00:27:53;;;;;;;;;;;;;;;2.97;100.00;95656.31;1026603;28;19957;-72
2022/04/12 00:28:24;;;;;;;;;;;;;;;2.95;100.00;95651.34;1023582;28;19966;-72
2022/04/12 00:28:54;;;;;;;;;;;;;;;2.94;100.00;95654.94;1026987;28;19914;-75
2022/04/12 00:29:24;;;;;;;;;;;;;;;2.95;100.00;95653.13;1030949;28;19933;-73
2022/04/12 00:29:55;;;;;;;;;;;;;;;2.93;100.00;95653.34;1034854;28;19913;-73
2022/04/12 00:30:26;;;;;;;;;;;;;;;2.87;100.00;95643.84;1038862;28;19913;-73
2022/04/12 00:30:56;;;;;;;;;;;;;;;2.92;100.00;95651.78;1033992;28;19921;-73
2022/04/12 00:31:26;;;;;;;;;;;;;;;2.92;100.00;95646.59;1034843;28;19921;-74
2022/04/12 00:31:56;;;;;;;;;;;;;;;2.89;100.00;95647.03;1030125;28;19914;-73
2022/04/12 00:32:27;;;;;;;;;;;;;;;2.87;100.00;95649.03;1033540;28;19957;-74
2022/04/12 00:32:57;;;;;;;;;;;;;;;2.86;100.00;95647.44;1030554;28;20350;-73
2022/04/12 00:33:29;;;;;;;;;;;;;;;2.85;100.00;95645.88;1030791;28;19910;-73
2022/04/12 00:34:02;;;;;;;;;;;;;;;2.82;100.00;95643.72;1030505;28;19924;-74
2022/04/12 00:34:32;;;;;;;;;;;;;;;2.79;100.00;95641.56;1027149;28;19989;-73
2022/04/12 00:35:03;;;;;;;;;;;;;;;2.76;100.00;95642.75;1030562;28;20380;-75
2022/04/12 00:35:35;;;;;;;;;;;;;;;2.76;100.00;95640.19;1026729;28;19980;-73
2022/04/12 00:36:06;;;;;;;;;;;;;;;2.75;100.00;95642.97;1033203;28;19914;-73
2022/04/12 00:36:37;;;;;;;;;;;;;;;2.76;100.00;95647.16;1034690;28;19921;-75
2022/04/12 00:37:07;;;;;;;;;;;;;;;2.77;100.00;95643.56;1033552;28;19917;-75
2022/04/12 00:37:38;;;;;;;;;;;;;;;2.77;100.00;95644.34;1034444;28;19913;-73
2022/04/12 00:38:22;;;;;;;;;;;;;;;2.75;100.00;95648.97;1034783;28;20072;-73
2022/04/12 00:38:52;;;;;;;;;;;;;;;2.76;100.00;95647.16;1030714;28;20438;-74
2022/04/12 00:39:23;;;;;;;;;;;;;;;2.75;100.00;95645.56;1031973;28;19964;-73
2022/04/12 00:39:53;;;;;;;;;;;;;;;2.74;100.00;95643.97;1032620;28;19914;-73
2022/04/12 00:40:26;;;;;;;;;;;;;;;2.70;100.00;95643.63;1030754;28;19925;-73
2022/04/12 00:40:57;;;;;;;;;;;;;;;2.70;100.00;95645.44;1026034;28;19921;-73
2022/04/12 00:41:35;;;;;;;;;;;;;;;2.70;100.00;95642.84;1022968;28;19993;-75
2022/04/12 00:42:06;;;;;;;;;;;;;;;2.67;100.00;95644.06;1024203;28;19933;-73
2022/04/12 00:42:37;;;;;;;;;;;;;;;2.68;100.00;95644.84;1027122;28;20005;-73
2022/04/12 00:43:10;;;;;;;;;;;;;;;2.67;100.00;95648.44;1034713;28;19940;-75
2022/04/12 00:43:41;;;;;;;;;;;;;;;2.66;100.00;95646.88;1032334;28;19957;-73
2022/04/12 00:44:12;;;;;;;;;;;;;;;2.65;100.00;95651.25;1038866;28;19967;-74
2022/04/12 00:44:43;;;;;;;;;;;;;;;2.66;100.00;95644.28;1034375;28;19974;-71
2022/04/12 00:45:18;;;;;;;;;;;;;;;2.65;100.00;95643.50;1034702;28;19918;-72
2022/04/12 00:45:51;;;;;;;;;;;;;;;2.64;100.00;95646.28;1034514;28;19918;-73
2022/04/12 00:46:22;;;;;;;;;;;;;;;2.63;100.00;95655.06;1034572;28;19925;-73
2022/04/12 00:46:52;;;;;;;;;;;;;;;2.64;100.00;95648.88;1035076;28;19928;-71
2022/04/12 00:47:22;;;;;;;;;;;;;;;2.63;100.00;95655.84;1034686;28;19917;-73
2022/04/12 00:47:53;;;;;;;;;;;;;;;2.60;100.00;95649.28;1026254;28;19925;-75
2022/04/12 00:48:23;;;;;;;;;;;;;;;2.60;100.00;95649.28;1026620;28;19921;-74
2022/04/12 00:48:53;;;;;;;;;;;;;;;2.60;100.00;95654.47;1026665;28;20324;-74
2022/04/12 00:49:24;;;;;;;;;;;;;;;2.59;100.00;95652.91;1030405;28;19918;-72
2022/04/12 00:49:54;;;;;;;;;;;;;;;2.62;100.00;95648.31;1042784;28;19913;-73
2022/04/12 00:50:24;;;;;;;;;;;;;;;2.62;100.00;95643.13;1038723;28;20407;-73
2022/04/12 00:50:55;;;;;;;;;;;;;;;2.62;100.00;95651.69;1038942;28;19975;-74
2022/04/12 00:51:25;;;;;;;;;;;;;;;2.63;100.00;95653.25;1034730;28;19921;-73
2022/04/12 00:51:58;;;;;;;;;;;;;;;2.63;100.00;95647.28;1033872;28;19988;-73
2022/04/12 00:52:29;;;;;;;;;;;;;;;2.63;100.00;95644.72;1035335;28;20397;-72
2022/04/12 00:52:59;;;;;;;;;;;;;;;2.62;100.00;95653.50;1028542;28;19910;-71
2022/04/12 00:53:29;;;;;;;;;;;;;;;2.61;100.00;95650.09;1034814;28;19959;-73
2022/04/12 00:54:00;;;;;;;;;;;;;;;2.62;100.00;95650.91;1030343;28;19914;-73
2022/04/12 00:54:36;;;;;;;;;;;;;;;2.62;100.00;95654.28;1026727;28;19961;-72
2022/04/12 00:55:07;;;;;;;;;;;;;;;2.63;100.00;95649.88;1026470;28;19914;-72
2022/04/12 00:55:37;;;;;;;;;;;;;;;2.60;100.00;95648.50;1027423;28;20708;-73
2022/04/12 00:56:08;;;;;;;;;;;;;;;2.63;100.00;95647.28;1027260;28;19922;-73
2022/04/12 00:56:38;;;;;;;;;;;;;;;2.64;100.00;95648.88;1025994;28;19914;-73
2022/04/12 00:57:08;;;;;;;;;;;;;;;2.64;100.00;95643.69;1025928;28;19989;-73
2022/04/12 00:57:38;;;;;;;;;;;;;;;2.63;100.00;95642.13;1030579;28;19914;-75
2022/04/12 00:58:10;;;;;;;;;;;;;;;2.59;100.00;95649.53;1030232;28;19913;-75
2022/04/12 00:58:46;;;;;;;;;;;;;;;2.60;100.00;95645.91;1030633;28;19920;-74
2022/04/12 00:59:16;;;;;;;;;;;;;;;2.57;100.00;95644.53;1026556;28;20666;-72
2022/04/12 00:59:47;;;;;;;;;;;;;;;2.56;100.00;95642.97;1021798;28;19915;-73
2022/04/12 01:00:17;;;;;;;;;;;;;;;2.55;100.00;95646.56;1029473;28;19918;-73
2022/04/12 01:00:51;;;;;;;;;;;;;;;2.56;100.00;95644.78;1027186;28;19926;-74
2022/04/12 01:01:21;;;;;;;;;;;;;;;2.54;100.00;95639.78;1026718;28;19941;-74
2022/04/12 01:01:51;;;;;;;;;;;;;;;2.54;100.00;95642.38;1026650;28;20471;-73
2022/04/12 01:02:22;;;;;;;;;;;;;;;2.52;100.00;95641.81;1026862;28;20758;-74
2022/04/12 01:02:53;;;;;;;;;;;;;;;2.53;100.00;95640.81;1030652;28;19937;-73
2022/04/12 01:03:23;;;;;;;;;;;;;;;2.55;100.00;95646.56;1033678;28;19917;-73
2022/04/12 01:03:54;;;;;;;;;;;;;;;2.54;100.00;95644.97;1030558;28;19953;-73
2022/04/12 01:04:24;;;;;;;;;;;;;;;2.55;100.00;95641.38;1026510;28;20376;-73
2022/04/12 01:04:54;;;;;;;;;;;;;;;2.55;100.00;95641.38;1034525;28;19976;-73
2022/04/12 01:05:25;;;;;;;;;;;;;;;2.53;100.00;95642.59;1030443;28;19914;-73
2022/04/12 01:05:56;;;;;;;;;;;;;;;2.52;100.00;95646.22;1034581;28;19921;-73
2022/04/12 01:06:26;;;;;;;;;;;;;;;2.51;100.00;95645.38;1026529;28;19914;-74
2022/04/12 01:06:56;;;;;;;;;;;;;;;2.52;100.00;95636.63;1025582;28;19914;-73
2022/04/12 01:07:30;;;;;;;;;;;;;;;2.50;100.00;95641.22;1026674;28;20466;-73
2022/04/12 01:08:00;;;;;;;;;;;;;;;2.52;100.00;95646.22;1030512;28;19910;-73
2022/04/12 01:08:31;;;;;;;;;;;;;;;2.51;100.00;95645.38;1022549;29;19949;-74
2022/04/12 01:09:04;;;;;;;;;;;;;;;2.50;100.00;95636.03;1023286;28;19915;-73
2022/04/12 01:09:35;;;;;;;;;;;;;;;2.50;100.00;95640.44;1030654;28;20763;-73
2022/04/12 01:10:05;;;;;;;;;;;;;;;2.50;100.00;95640.44;1027165;28;19918;-73
2022/04/12 01:10:37;;;;;;;;;;;;;;;2.49;100.00;95639.66;1026275;28;19918;-73
2022/04/12 01:11:07;;;;;;;;;;;;;;;2.51;100.00;95639.44;1026848;28;19918;-73
2022/04/12 01:11:39;;;;;;;;;;;;;;;2.50;100.00;95640.44;1022719;29;20275;-74
2022/04/12 01:12:10;;;;;;;;;;;;;;;2.49;100.00;95636.28;1018562;29;20037;-73
2022/04/12 01:12:41;;;;;;;;;;;;;;;2.49;100.00;95637.06;1026413;28;20400;-73
2022/04/12 01:13:14;;;;;;;;;;;;;;;2.50;100.00;95632.66;1026572;28;20193;-72
2022/04/12 01:13:44;;;;;;;;;;;;;;;2.50;100.00;95636.03;1022529;28;19950;-73
2022/04/12 01:14:15;;;;;;;;;;;;;;;2.48;100.00;95637.25;1022661;29;19926;-72
2022/04/12 01:14:45;;;;;;;;;;;;;;;2.49;100.00;95637.06;1020980;28;19952;-71
2022/04/12 01:15:15;;;;;;;;;;;;;;;2.50;100.00;95635.25;1026432;28;19922;-73
2022/04/12 01:15:46;;;;;;;;;;;;;;;2.50;100.00;95632.66;1030606;28;19945;-73
2022/04/12 01:16:17;;;;;;;;;;;;;;;2.48;100.00;95635.50;1030499;28;19953;-73
2022/04/12 01:16:47;;;;;;;;;;;;;;;2.47;100.00;95638.28;1034057;28;19928;-73
2022/04/12 01:17:17;;;;;;;;;;;;;;;2.43;100.00;95643.09;1030876;28;19933;-73
2022/04/12 01:17:48;;;;;;;;;;;;;;;2.43;100.00;95642.31;1027562;28;19941;-74
2022/04/12 01:18:18;;;;;;;;;;;;;;;2.41;100.00;95634.72;1026613;28;20411;-72
2022/04/12 01:18:48;;;;;;;;;;;;;;;2.40;100.00;95638.34;1026632;28;20045;-73
2022/04/12 01:19:18;;;;;;;;;;;;;;;2.40;100.00;95637.56;1030503;28;19921;-73
2022/04/12 01:19:49;;;;;;;;;;;;;;;2.39;100.00;95635.97;1035165;28;20135;-73
2022/04/12 01:20:23;;;;;;;;;;;;;;;2.35;100.00;95638.97;1034671;28;20545;-74
2022/04/12 01:20:53;;;;;;;;;;;;;;;2.35;100.00;95635.59;1033937;28;20000;-73
2022/04/12 01:21:24;;;;;;;;;;;;;;;2.33;100.00;95645.38;1026966;28;19922;-73
2022/04/12 01:21:55;;;;;;;;;;;;;;;2.34;100.00;95639.19;1026461;28;19918;-73
2022/04/12 01:22:29;;;;;;;;;;;;;;;2.32;100.00;95641.22;1025834;28;20411;-74
2022/04/12 01:23:09;;;;;;;;;;;;;;;2.32;100.00;95651.56;1027170;28;19910;-71
2022/04/12 01:23:42;;;;;;;;;;;;;;;2.30;100.00;95643.22;1033395;28;20379;-73
2022/04/12 01:24:12;;;;;;;;;;;;;;;2.30;100.00;95656.16;1033391;28;20016;-73
2022/04/12 01:24:45;;;;;;;;;;;;;;;2.29;100.00;95649.41;1029552;28;19921;-73
2022/04/12 01:25:15;;;;;;;;;;;;;;;2.28;100.00;95652.97;1027210;28;19921;-72
2022/04/12 01:25:46;;;;;;;;;;;;;;;2.29;100.00;95649.41;1019679;28;19911;-73
2022/04/12 01:26:16;;;;;;;;;;;;;;;2.27;100.00;95643.63;1019980;28;20344;-73
2022/04/12 01:26:46;;;;;;;;;;;;;;;2.25;100.00;95650.84;1026872;28;19922;-75
2022/04/12 01:27:17;;;;;;;;;;;;;;;2.26;100.00;95642.84;1030941;28;20009;-73
2022/04/12 01:27:47;;;;;;;;;;;;;;;2.28;100.00;95647.78;1035459;28;19964;-74
2022/04/12 01:28:17;;;;;;;;;;;;;;;2.25;100.00;95650.84;1031201;28;20403;-74
2022/04/12 01:28:47;;;;;;;;;;;;;;;2.29;100.00;95644.22;1031463;28;19914;-73
2022/04/12 01:29:18;;;;;;;;;;;;;;;2.32;100.00;95643.81;1033559;28;19928;-73
2022/04/12 01:29:49;;;;;;;;;;;;;;;2.32;100.00;95652.34;1027374;28;19907;-76
2022/04/12 01:30:20;;;;;;;;;;;;;;;2.30;100.00;95640.63;1031365;28;19914;-73
2022/04/12 01:30:50;;;;;;;;;;;;;;;2.31;100.00;95643.00;1031311;28;20385;-71
2022/04/12 01:31:21;;;;;;;;;;;;;;;2.32;100.00;95651.56;1027527;28;19992;-75
2022/04/12 01:31:51;;;;;;;;;;;;;;;2.30;100.00;95640.63;1031688;28;19918;-74
2022/04/12 01:32:21;;;;;;;;;;;;;;;2.31;100.00;95649.97;1033214;28;20455;-75
2022/04/12 01:32:52;;;;;;;;;;;;;;;2.28;100.00;95646.03;1031455;28;19914;-74
2022/04/12 01:33:22;;;;;;;;;;;;;;;2.28;100.00;95646.03;1031085;28;20423;-73
2022/04/12 01:33:52;;;;;;;;;;;;;;;2.25;100.00;95650.84;1029704;28;20606;-74
2022/04/12 01:34:23;;;;;;;;;;;;;;;2.24;100.00;95649.22;1031194;28;19913;-74
2022/04/12 01:34:53;;;;;;;;;;;;;;;2.24;100.00;95646.63;1031392;28;19910;-74
2022/04/12 01:35:26;;;;;;;;;;;;;;;2.24;100.00;95649.22;1035224;28;19926;-73
2022/04/12 01:35:56;;;;;;;;;;;;;;;2.24;100.00;95646.63;1034235;28;20028;-73
2022/04/12 01:36:27;;;;;;;;;;;;;;;2.22;100.00;95641.69;1031560;28;20570;-74
2022/04/12 01:36:57;;;;;;;;;;;;;;;2.23;100.00;95650.25;1030890;28;20051;-73
2022/04/12 01:37:28;;;;;;;;;;;;;;;2.20;100.00;95648.06;1027389;28;19922;-73
2022/04/12 01:38:01;;;;;;;;;;;;;;;2.18;100.00;95644.91;1027091;28;19922;-74
2022/04/12 01:38:31;;;;;;;;;;;;;;;2.16;100.00;95645.13;1027384;28;19982;-74
2022/04/12 01:39:02;;;;;;;;;;;;;;;2.16;100.00;95647.72;1028294;28;19994;-74
2022/04/12 01:39:33;;;;;;;;;;;;;;;2.12;100.00;95647.34;1038313;28;19916;-73
2022/04/12 01:40:03;;;;;;;;;;;;;;;2.12;100.00;95644.75;1035223;28;19925;-73
2022/04/12 01:40:34;;;;;;;;;;;;;;;2.11;100.00;95645.75;1031610;28;19914;-73
2022/04/12 01:41:04;;;;;;;;;;;;;;;2.11;100.00;95644.94;1035063;28;19921;-73
2022/04/12 01:41:35;;;;;;;;;;;;;;;2.10;100.00;95649.34;1031561;28;20008;-73
2022/04/12 01:42:05;;;;;;;;;;;;;;;2.09;100.00;95650.34;1035257;28;19965;-73
2022/04/12 01:42:38;;;;;;;;;;;;;;;2.10;100.00;95646.75;1035148;28;19921;-70
2022/04/12 01:43:10;;;;;;;;;;;;;;;2.10;100.00;95649.34;1031314;28;19924;-72
2022/04/12 01:43:40;;;;;;;;;;;;;;;2.08;100.00;95645.41;1031265;28;20126;-73
2022/04/12 01:44:11;;;;;;;;;;;;;;;2.07;100.00;95647.16;1027653;28;20020;-73
2022/04/12 01:44:44;;;;;;;;;;;;;;;2.07;100.00;95644.56;1034655;28;20484;-74
2022/04/12 01:45:14;;;;;;;;;;;;;;;2.08;100.00;95651.34;1039486;28;19920;-73
2022/04/12 01:45:44;;;;;;;;;;;;;;;2.05;100.00;95641.44;1035711;28;19917;-73
2022/04/12 01:46:15;;;;;;;;;;;;;;;2.04;100.00;95645.00;1035028;28;19976;-73
2022/04/12 01:46:45;;;;;;;;;;;;;;;2.03;100.00;95652.97;1030919;28;19918;-74
2022/04/12 01:47:17;;;;;;;;;;;;;;;2.02;100.00;95641.84;1031108;28;20311;-73
2022/04/12 01:47:48;;;;;;;;;;;;;;;2.02;100.00;95649.59;1031968;28;19922;-73
2022/04/12 01:48:18;;;;;;;;;;;;;;;2.01;100.00;95650.63;1035133;28;19921;-75
2022/04/12 01:48:49;;;;;;;;;;;;;;;2.00;100.00;95646.44;1031690;28;19957;-73
2022/04/12 01:49:19;;;;;;;;;;;;;;;2.00;100.00;95643.06;1031365;28;19972;-73
2022/04/12 01:49:50;;;;;;;;;;;;;;;2.00;100.00;95645.63;1038994;28;20722;-74
2022/04/12 01:50:20;;;;;;;;;;;;;;;1.96;100.00;95642.69;1035328;28;19917;-74
2022/04/12 01:50:50;;;;;;;;;;;;;;;1.98;100.00;95650.22;1035510;28;19983;-73
2022/04/12 01:51:21;;;;;;;;;;;;;;;1.97;100.00;95646.84;1029466;28;19917;-73
2022/04/12 01:51:51;;;;;;;;;;;;;;;1.93;100.00;95643.09;1027068;28;20592;-74
2022/04/12 01:52:22;;;;;;;;;;;;;;;1.97;100.00;95643.47;1019078;28;19926;-74
2022/04/12 01:52:53;;;;;;;;;;;;;;;1.96;100.00;95650.44;1023121;28;20084;-72
2022/04/12 01:53:26;;;;;;;;;;;;;;;1.96;100.00;95652.25;1024009;28;19985;-73
2022/04/12 01:53:56;;;;;;;;;;;;;;;1.96;100.00;95655.63;1028865;28;20413;-72
2022/04/12 01:54:26;;;;;;;;;;;;;;;1.95;100.00;95656.63;1038901;28;19918;-73
2022/04/12 01:54:56;;;;;;;;;;;;;;;1.96;100.00;95655.63;1040073;28;19910;-74
2022/04/12 01:55:27;;;;;;;;;;;;;;;1.96;100.00;95649.66;1040310;28;20750;-74
2022/04/12 01:55:57;;;;;;;;;;;;;;;1.96;100.00;95653.03;1035751;28;19960;-73
2022/04/12 01:56:28;;;;;;;;;;;;;;;1.96;100.00;95652.25;1031518;28;19928;-72
2022/04/12 01:56:59;;;;;;;;;;;;;;;1.95;100.00;95651.47;1026851;28;19922;-73
2022/04/12 01:57:29;;;;;;;;;;;;;;;1.98;100.00;95661.38;1028232;28;19941;-74
2022/04/12 01:58:00;;;;;;;;;;;;;;;1.99;100.00;95657.00;1027999;28;20009;-72
2022/04/12 01:58:31;;;;;;;;;;;;;;;2.01;100.00;95660.97;1027896;28;19925;-73
2022/04/12 01:59:02;;;;;;;;;;;;;;;2.01;100.00;95655.78;1023977;28;19919;-72
2022/04/12 01:59:32;;;;;;;;;;;;;;;2.00;100.00;95653.41;1024258;28;19914;-73
2022/04/12 02:00:03;;;;;;;;;;;;;;;1.97;100.00;95649.44;1028130;28;19914;-75
2022/04/12 02:00:36;;;;;;;;;;;;;;;1.97;100.00;95649.44;1033014;28;20376;-72
2022/04/12 02:01:06;;;;;;;;;;;;;;;1.96;100.00;95653.03;1040272;28;19936;-74
2022/04/12 02:01:36;;;;;;;;;;;;;;;1.98;100.00;95650.22;1033769;28;20029;-74
2022/04/12 02:02:07;;;;;;;;;;;;;;;1.96;100.00;95653.03;1036269;28;19937;-73
2022/04/12 02:02:37;;;;;;;;;;;;;;;1.94;100.00;95652.44;1031839;28;19916;-74
2022/04/12 02:03:07;;;;;;;;;;;;;;;1.94;100.00;95651.66;1023999;28;19923;-73
2022/04/12 02:03:37;;;;;;;;;;;;;;;1.93;100.00;95653.44;1023977;28;19926;-74
2022/04/12 02:04:08;;;;;;;;;;;;;;;1.93;100.00;95655.25;1024187;29;19965;-74
2022/04/12 02:04:38;;;;;;;;;;;;;;;1.91;100.00;95649.47;1028022;28;19918;-74
2022/04/12 02:05:09;;;;;;;;;;;;;;;1.87;100.00;95649.09;1032001;28;19922;-73
2022/04/12 02:05:42;;;;;;;;;;;;;;;1.86;100.00;95647.53;1035849;28;20434;-72
2022/04/12 02:06:12;;;;;;;;;;;;;;;1.86;100.00;95652.72;1040321;28;20440;-73
2022/04/12 02:06:42;;;;;;;;;;;;;;;1.86;100.00;95650.13;1039533;28;19917;-72
2022/04/12 02:07:16;;;;;;;;;;;;;;;1.87;100.00;95643.94;1035401;28;19929;-74
2022/04/12 02:07:46;;;;;;;;;;;;;;;1.85;100.00;95646.75;1028539;28;19914;-73
2022/04/12 02:08:17;;;;;;;;;;;;;;;1.84;100.00;95650.31;1027984;28;19926;-73
2022/04/12 02:08:47;;;;;;;;;;;;;;;1.87;100.00;95649.91;1030059;28;19922;-73
2022/04/12 02:09:17;;;;;;;;;;;;;;;1.89;100.00;95653.06;1032433;28;19965;-72
2022/04/12 02:09:47;;;;;;;;;;;;;;;1.89;100.00;95649.72;1036203;28;19918;-72
2022/04/12 02:10:20;;;;;;;;;;;;;;;1.88;100.00;95648.91;1035984;28;19961;-73
2022/04/12 02:10:50;;;;;;;;;;;;;;;1.87;100.00;95647.31;1036427;28;19976;-73
2022/04/12 02:11:20;;;;;;;;;;;;;;;1.90;100.00;95651.28;1040146;28;19921;-75
2022/04/12 02:11:53;;;;;;;;;;;;;;;1.92;100.00;95657.06;1036275;28;20040;-73
2022/04/12 02:12:23;;;;;;;;;;;;;;;1.95;100.00;95651.47;1034863;28;20645;-77
2022/04/12 02:12:53;;;;;;;;;;;;;;;1.95;100.00;95653.25;1033162;28;19929;-73
2022/04/12 02:13:24;;;;;;;;;;;;;;;1.97;100.00;95659.00;1032132;28;19956;-74
2022/04/12 02:13:54;;;;;;;;;;;;;;;1.98;100.00;95656.22;1037899;28;19917;-73
2022/04/12 02:14:24;;;;;;;;;;;;;;;1.97;100.00;95654.59;1040082;28;19913;-74
2022/04/12 02:14:55;;;;;;;;;;;;;;;1.99;100.00;95650.03;1040265;28;19921;-74
2022/04/12 02:15:25;;;;;;;;;;;;;;;2.00;100.00;95654.19;1039897;28;19955;-73
2022/04/12 02:15:55;;;;;;;;;;;;;;;2.00;100.00;95656.78;1028270;28;20394;-74
2022/04/12 02:16:25;;;;;;;;;;;;;;;2.04;100.00;95651.97;1028037;28;20585;-74
2022/04/12 02:16:56;;;;;;;;;;;;;;;2.04;100.00;95650.16;1026822;28;19965;-74
2022/04/12 02:17:26;;;;;;;;;;;;;;;2.06;100.00;95655.16;1023783;28;20001;-74
2022/04/12 02:17:56;;;;;;;;;;;;;;;2.05;100.00;95656.16;1023907;28;20006;-73
2022/04/12 02:18:27;;;;;;;;;;;;;;;2.04;100.00;95654.56;1028098;28;20005;-73
2022/04/12 02:19:00;;;;;;;;;;;;;;;2.03;100.00;95656.38;1027826;28;20415;-74
2022/04/12 02:19:30;;;;;;;;;;;;;;;2.05;100.00;95654.38;1032337;28;19922;-73
2022/04/12 02:20:00;;;;;;;;;;;;;;;2.07;100.00;95657.53;1028259;28;19953;-74
2022/04/12 02:20:30;;;;;;;;;;;;;;;2.08;100.00;95655.75;1028321;28;20369;-73
2022/04/12 02:21:01;;;;;;;;;;;;;;;2.08;100.00;95656.53;1023957;29;19922;-74
2022/04/12 02:21:31;;;;;;;;;;;;;;;2.09;100.00;95658.13;1023977;29;19929;-73
2022/04/12 02:22:05;;;;;;;;;;;;;;;2.10;100.00;95653.72;1027812;28;20514;-73
2022/04/12 02:22:35;;;;;;;;;;;;;;;2.07;100.00;95660.09;1028930;28;19915;-72
2022/04/12 02:23:06;;;;;;;;;;;;;;;2.08;100.00;95650.56;1036611;28;20471;-75
2022/04/12 02:23:36;;;;;;;;;;;;;;;2.07;100.00;95652.34;1035905;28;19960;-72
2022/04/12 02:24:06;;;;;;;;;;;;;;;2.07;100.00;95656.72;1031949;28;19909;-73
2022/04/12 02:24:37;;;;;;;;;;;;;;;2.07;100.00;95652.34;1036052;28;19909;-74
2022/04/12 02:25:07;;;;;;;;;;;;;;;2.08;100.00;95653.94;1036110;28;20299;-72
2022/04/12 02:25:38;;;;;;;;;;;;;;;2.07;100.00;95652.34;1035685;28;19933;-72
2022/04/12 02:26:08;;;;;;;;;;;;;;;2.05;100.00;95645.81;1036119;28;19909;-73
2022/04/12 02:26:38;;;;;;;;;;;;;;;2.05;100.00;95651.78;1035978;28;19910;-73
2022/04/12 02:27:09;;;;;;;;;;;;;;;2.03;100.00;95652.97;1031428;28;19984;-74
2022/04/12 02:27:39;;;;;;;;;;;;;;;2.03;100.00;95653.78;1034706;28;19921;-73
2022/04/12 02:28:09;;;;;;;;;;;;;;;2.02;100.00;95647.03;1028129;28;19917;-73
2022/04/12 02:28:40;;;;;;;;;;;;;;;2.01;100.00;95648.03;1028027;28;19957;-74
2022/04/12 02:29:13;;;;;;;;;;;;;;;2.02;100.00;95654.78;1031886;28;19910;-74
2022/04/12 02:29:43;;;;;;;;;;;;;;;2.01;100.00;95650.63;1028165;28;19907;-73
2022/04/12 02:30:16;;;;;;;;;;;;;;;2.01;100.00;95650.63;1027347;28;20288;-74
2022/04/12 02:30:47;;;;;;;;;;;;;;;2.00;100.00;95643.84;1031872;28;19913;-74
2022/04/12 02:31:20;;;;;;;;;;;;;;;1.99;100.00;95647.44;1031916;28;19910;-71
2022/04/12 02:31:51;;;;;;;;;;;;;;;1.99;100.00;95647.44;1036089;28;19906;-72
2022/04/12 02:32:21;;;;;;;;;;;;;;;1.99;100.00;95649.25;1031836;28;19937;-73
2022/04/12 02:32:52;;;;;;;;;;;;;;;1.98;100.00;95645.88;1027752;28;20481;-73
2022/04/12 02:33:23;;;;;;;;;;;;;;;1.98;100.00;95651.03;1023382;28;19918;-73
2022/04/12 02:33:53;;;;;;;;;;;;;;;1.97;100.00;95652.03;1020192;28;19917;-73
2022/04/12 02:34:26;;;;;;;;;;;;;;;1.95;100.00;95648.88;1029698;28;19911;-75
2022/04/12 02:35:00;;;;;;;;;;;;;;;1.95;100.00;95654.03;1031605;28;20001;-74
2022/04/12 02:35:30;;;;;;;;;;;;;;;1.93;100.00;95648.28;1036076;28;19925;-74
2022/04/12 02:36:01;;;;;;;;;;;;;;;1.92;100.00;95648.50;1031735;28;19968;-73
2022/04/12 02:36:31;;;;;;;;;;;;;;;1.91;100.00;95655.44;1028430;28;19942;-76
2022/04/12 02:37:01;;;;;;;;;;;;;;;1.89;100.00;95654.88;1031044;28;19918;-73
2022/04/12 02:37:32;;;;;;;;;;;;;;;1.89;100.00;95652.28;1028215;28;20017;-75
2022/04/12 02:38:02;;;;;;;;;;;;;;;1.86;100.00;95650.13;1035906;28;19918;-72
2022/04/12 02:38:33;;;;;;;;;;;;;;;1.84;100.00;95649.53;1035998;28;19916;-73
2022/04/12 02:39:03;;;;;;;;;;;;;;;1.83;100.00;95653.91;1027955;28;19925;-73
2022/04/12 02:39:33;;;;;;;;;;;;;;;1.82;100.00;95651.53;1032001;28;19925;-73
2022/04/12 02:40:04;;;;;;;;;;;;;;;1.82;100.00;95651.53;1027861;28;19918;-73
2022/04/12 02:40:34;;;;;;;;;;;;;;;1.81;100.00;95650.75;1032068;28;19921;-74
2022/04/12 02:41:04;;;;;;;;;;;;;;;1.81;100.00;95652.53;1033338;28;19918;-73
2022/04/12 02:41:36;;;;;;;;;;;;;;;1.81;100.00;95655.13;1028125;28;20503;-73
2022/04/12 02:42:06;;;;;;;;;;;;;;;1.78;100.00;95651.19;1031969;28;20306;-74
2022/04/12 02:42:36;;;;;;;;;;;;;;;1.78;100.00;95658.16;1031732;28;19921;-72
2022/04/12 02:43:07;;;;;;;;;;;;;;;1.75;100.00;95659.34;1028288;28;19925;-73